Time;durP1;ratioP1;P1;durP2;ratioP2;P2;SDS_P1;SDS_P2;PMS_P1;PMS_P2;Temp;Humidity;BMP_temperature;BMP_pressure;BME280_temperature;BME280_humidity;BME280_pressure;Samples;Min_cycle;Max_cycle;Signal;HPM_P1;HPM_P2
2022/01/06 00:01:24;;;;;;;9.20;1.92;;;;;;;7.57;61.44;101422.63;4946031;28;125159;-70
2022/01/06 00:03:53;;;;;;;10.27;1.98;;;;;;;7.54;61.19;101428.84;4947178;28;123655;-70
2022/01/06 00:06:23;;;;;;;10.30;1.85;;;;;;;7.53;61.23;101442.06;4937754;28;118419;-70
2022/01/06 00:08:50;;;;;;;10.85;1.58;;;;;;;7.49;61.37;101435.97;4947163;28;119405;-70
2022/01/06 00:11:17;;;;;;;7.00;1.60;;;;;;;7.48;60.88;101434.25;4947062;28;123921;-70
2022/01/06 00:24:50;;;;;;;9.25;1.88;;;;;;;7.38;61.25;101448.53;4944108;28;124322;-70
2022/01/06 00:27:17;;;;;;;9.77;1.92;;;;;;;7.36;61.31;101445.91;4946889;28;119883;-70
2022/01/06 00:29:44;;;;;;;9.07;2.30;;;;;;;7.35;60.98;101448.63;4934437;28;117555;-70
2022/01/06 00:32:11;;;;;;;8.18;2.28;;;;;;;7.35;61.35;101451.25;4946702;28;124050;-70
2022/01/06 00:34:38;;;;;;;8.98;2.08;;;;;;;7.32;61.26;101448.66;4946899;28;124209;-70
2022/01/06 00:37:07;;;;;;;7.57;1.90;;;;;;;7.31;60.99;101454.81;4944608;28;119046;-70
2022/01/06 00:39:34;;;;;;;9.43;2.00;;;;;;;7.29;61.21;101448.72;4945499;28;117903;-69
2022/01/06 00:42:02;;;;;;;10.75;2.20;;;;;;;7.29;60.92;101448.72;4946228;28;124711;-70
2022/01/06 00:44:29;;;;;;;7.53;2.80;;;;;;;7.28;60.98;101457.56;4946687;28;124282;-70
2022/01/06 00:46:56;;;;;;;13.23;2.45;;;;;;;7.26;60.92;101454.09;4944971;28;119230;-70
2022/01/06 00:49:23;;;;;;;8.55;2.25;;;;;;;7.24;61.31;101455.88;4946485;28;119560;-70
2022/01/06 00:51:50;;;;;;;13.90;2.03;;;;;;;7.21;60.98;101460.31;4946383;28;123610;-70
2022/01/06 00:54:17;;;;;;;8.55;1.60;;;;;;;7.21;61.01;101468.22;4928979;28;124553;-70
2022/01/06 00:56:44;;;;;;;6.57;1.90;;;;;;;7.20;60.93;101461.22;4920827;28;118695;-70
2022/01/06 00:59:11;;;;;;;7.80;1.58;;;;;;;7.18;61.12;101457.75;4929357;28;117509;-70
2022/01/06 01:01:39;;;;;;;9.65;1.92;;;;;;;7.16;61.14;101459.53;4945524;28;124881;-70
2022/01/06 01:04:06;;;;;;;9.98;2.20;;;;;;;7.14;60.96;101456.06;4946608;28;124195;-70
2022/01/06 01:06:34;;;;;;;11.00;2.00;;;;;;;7.12;60.86;101463.16;4944696;28;119340;-70
2022/01/06 01:09:02;;;;;;;9.02;2.20;;;;;;;7.08;60.87;101466.72;4944124;28;117819;-69
2022/01/06 01:11:29;;;;;;;11.27;2.53;;;;;;;7.07;61.14;101475.53;4911380;28;122292;-70
2022/01/06 01:13:57;;;;;;;8.55;1.85;;;;;;;7.04;61.07;101475.59;4944229;28;124255;-70
2022/01/06 01:16:30;;;;;;;7.22;2.45;;;;;;;7.02;60.96;101474.75;4928778;28;118203;-70
2022/01/06 01:19:01;;;;;;;7.93;3.25;;;;;;;7.02;60.84;101466.84;4942440;28;120153;-70
2022/01/06 01:21:28;;;;;;;12.85;2.92;;;;;;;7.01;60.73;101470.41;4942993;28;124590;-70
2022/01/06 01:23:57;;;;;;;8.90;1.90;;;;;;;7.00;60.94;101474.78;4928220;28;123823;-70
2022/01/06 01:26:26;;;;;;;11.10;1.73;;;;;;;6.99;60.86;101472.19;4944973;28;119036;-70
2022/01/06 01:28:53;;;;;;;8.73;2.03;;;;;;;6.98;60.95;101470.44;4946960;28;119288;-70
2022/01/06 01:31:31;;;;;;;8.82;2.08;;;;;;;6.98;60.99;101480.97;4931585;28;123837;-70
2022/01/06 01:34:02;;;;;;;10.35;1.80;;;;;;;6.95;60.89;101481.03;4947858;28;123641;-70
2022/01/06 01:36:29;;;;;;;9.43;1.50;;;;;;;6.93;61.10;101482.81;4947836;28;118038;-70
2022/01/06 01:38:56;;;;;;;13.73;2.47;;;;;;;6.93;61.11;101488.09;4948385;28;120613;-70
2022/01/06 01:41:23;;;;;;;8.10;1.63;;;;;;;6.91;60.69;101484.63;4949088;28;123832;-69
2022/01/06 01:43:53;;;;;;;9.93;1.60;;;;;;;6.92;60.95;101502.19;4949247;28;123621;-70
2022/01/06 01:46:28;;;;;;;10.30;2.17;;;;;;;6.88;61.08;101505.78;4948145;28;119748;-69
2022/01/06 01:49:30;;;;;;;11.00;1.90;;;;;;;6.86;61.10;101508.44;4947015;28;119714;-69
2022/01/06 01:51:57;;;;;;;14.95;2.55;;;;;;;6.84;60.89;101515.50;4946332;28;124457;-70
2022/01/06 01:54:24;;;;;;;8.45;1.60;;;;;;;6.82;60.82;101518.16;4948110;28;124282;-70
2022/01/06 01:56:52;;;;;;;13.52;2.10;;;;;;;6.81;60.87;101521.66;4949163;28;119881;-70
2022/01/06 01:59:19;;;;;;;9.95;1.92;;;;;;;6.79;60.73;101526.09;4931461;28;117761;-70
2022/01/06 02:01:46;;;;;;;9.13;1.55;;;;;;;6.76;61.05;101523.53;4944393;28;123060;-70
2022/01/06 02:04:13;;;;;;;5.82;1.75;;;;;;;6.75;60.88;101527.06;4948980;28;123605;-70
2022/01/06 02:06:41;;;;;;;7.32;1.98;;;;;;;6.74;60.82;101533.22;4949494;28;118923;-70
2022/01/06 02:09:08;;;;;;;10.23;2.35;;;;;;;6.71;60.79;101535.91;4930031;28;119143;-70
2022/01/06 02:11:35;;;;;;;9.70;1.65;;;;;;;6.71;60.83;101545.56;4948330;28;124087;-70
2022/01/06 02:14:05;;;;;;;9.93;1.90;;;;;;;6.70;60.77;101555.22;4947518;28;124339;-70
2022/01/06 02:16:32;;;;;;;8.32;1.83;;;;;;;6.69;61.11;101553.50;4949301;28;120020;-70
2022/01/06 02:19:00;;;;;;;8.75;1.77;;;;;;;6.67;61.10;101550.03;4949627;28;118954;-70
2022/01/06 02:21:27;;;;;;;8.05;1.88;;;;;;;6.67;60.83;101550.03;4947409;28;123784;-70
2022/01/06 02:23:54;;;;;;;6.88;1.60;;;;;;;6.66;60.80;101550.91;4947825;28;123816;-70
2022/01/06 02:26:22;;;;;;;11.10;2.70;;;;;;;6.65;60.90;101546.56;4946861;28;119460;-70
2022/01/06 02:28:49;;;;;;;9.73;2.47;;;;;;;6.65;61.14;101550.91;4947428;28;119155;-70
2022/01/06 02:31:16;;;;;;;8.13;2.17;;;;;;;6.63;60.92;101543.06;4947218;28;123805;-70
2022/01/06 02:33:44;;;;;;;10.27;2.00;;;;;;;6.63;61.01;101543.06;4948479;28;124129;-70
2022/01/06 02:36:11;;;;;;;9.10;2.05;;;;;;;6.62;60.92;101551.84;4947130;28;118359;-70
2022/01/06 02:38:38;;;;;;;9.82;2.42;;;;;;;6.62;61.11;101546.59;4948674;28;118933;-70
2022/01/06 02:41:05;;;;;;;11.38;2.25;;;;;;;6.62;60.86;101543.97;4947687;28;124224;-70
2022/01/06 02:43:32;;;;;;;11.30;2.45;;;;;;;6.63;60.79;101556.25;4948793;28;124222;-70
2022/01/06 02:45:59;;;;;;;5.75;2.00;;;;;;;6.63;60.99;101553.59;4947919;28;119161;-70
2022/01/06 02:48:26;;;;;;;12.55;2.22;;;;;;;6.63;60.79;101553.59;4949304;28;119237;-70
2022/01/06 02:50:53;;;;;;;16.77;3.63;;;;;;;6.62;60.99;101550.09;4946777;28;123042;-70
2022/01/06 02:53:20;;;;;;;10.88;3.17;;;;;;;6.61;60.56;101555.38;4946627;28;123952;-70
2022/01/06 02:55:52;;;;;;;10.60;3.33;;;;;;;6.62;60.85;101563.25;4946109;28;119311;-70
2022/01/06 02:58:39;;;;;;;12.45;3.42;;;;;;;6.61;60.92;101550.09;4945849;28;119192;-70
2022/01/06 03:01:06;;;;;;;11.45;3.38;;;;;;;6.60;60.55;101558.91;4940218;28;122935;-70
2022/01/06 03:03:34;;;;;;;11.40;3.80;;;;;;;6.58;60.76;101555.44;4929318;28;122978;-70
2022/01/06 03:06:01;;;;;;;15.85;4.43;;;;;;;6.57;60.64;101549.31;4948383;28;119681;-70
2022/01/06 03:08:28;;;;;;;15.70;4.57;;;;;;;6.56;60.73;101551.97;4944989;28;120074;-70
2022/01/06 03:10:57;;;;;;;12.10;3.17;;;;;;;6.54;60.57;101544.09;4946558;28;125174;-70
2022/01/06 03:13:24;;;;;;;11.43;2.72;;;;;;;6.53;60.63;101557.28;4947456;28;124190;-69
2022/01/06 03:15:51;;;;;;;9.25;2.53;;;;;;;6.52;60.80;101558.19;4947526;28;119422;-70
2022/01/06 03:18:18;;;;;;;9.93;2.20;;;;;;;6.50;60.78;101557.31;4946510;28;119157;-70
2022/01/06 03:20:45;;;;;;;10.98;2.15;;;;;;;6.49;60.67;101560.84;4946148;28;122580;-70
2022/01/06 03:23:12;;;;;;;12.75;3.00;;;;;;;6.47;60.82;101567.91;4948058;28;123891;-70
2022/01/06 03:25:39;;;;;;;14.70;2.58;;;;;;;6.45;60.51;101569.69;4942187;28;118354;-70
2022/01/06 03:28:06;;;;;;;13.43;2.88;;;;;;;6.43;60.60;101578.47;4947611;28;118889;-70
2022/01/06 03:30:34;;;;;;;14.05;3.10;;;;;;;6.42;60.93;101587.28;4947146;28;124590;-70
2022/01/06 03:33:01;;;;;;;11.80;3.20;;;;;;;6.41;60.97;101574.13;4944149;28;123153;-70
2022/01/06 03:35:28;;;;;;;12.20;2.92;;;;;;;6.41;60.89;101579.41;4947729;28;119986;-69
2022/01/06 03:37:56;;;;;;;9.48;3.00;;;;;;;6.41;60.78;101585.53;4947932;28;118910;-70
2022/01/06 03:40:23;;;;;;;9.90;3.20;;;;;;;6.40;60.93;101573.28;4945469;28;124157;-69
2022/01/06 03:42:50;;;;;;;10.57;2.20;;;;;;;6.40;60.86;101578.53;4932437;28;124013;-70
2022/01/06 03:45:18;;;;;;;13.68;2.75;;;;;;;6.40;60.69;101588.16;4950526;28;119545;-69
2022/01/06 03:47:45;;;;;;;9.73;2.72;;;;;;;6.39;60.43;101586.44;4948904;28;119021;-70
2022/01/06 03:50:14;;;;;;;10.45;3.67;;;;;;;6.37;60.67;101582.97;4949617;28;124919;-69
2022/01/06 03:52:42;;;;;;;9.23;3.47;;;;;;;6.35;60.70;101590.88;4930416;28;124164;-70
2022/01/06 03:55:12;;;;;;;12.60;3.50;;;;;;;6.33;60.75;101592.69;4946544;28;119862;-70
2022/01/06 03:57:39;;;;;;;13.63;3.55;;;;;;;6.33;60.97;101592.69;4948336;28;118527;-70
2022/01/06 04:00:10;;;;;;;13.32;3.17;;;;;;;6.33;60.58;101595.31;4929653;28;124765;-70
2022/01/06 04:02:41;;;;;;;13.90;2.90;;;;;;;6.32;60.65;101596.19;4945627;28;123834;-70
2022/01/06 04:05:10;;;;;;;15.85;3.53;;;;;;;6.33;60.68;101591.78;4944450;28;120009;-70
2022/01/06 04:07:38;;;;;;;11.68;3.20;;;;;;;6.32;60.61;101596.19;4946455;28;120720;-70
2022/01/06 04:10:06;;;;;;;11.18;2.85;;;;;;;6.31;60.74;101597.09;4945512;28;123970;-70
2022/01/06 04:12:35;;;;;;;12.75;3.90;;;;;;;6.30;60.86;101603.22;4943921;28;123924;-70
2022/01/06 04:15:08;;;;;;;15.10;3.75;;;;;;;6.28;60.70;101599.75;4946562;28;119402;-70
2022/01/06 04:17:35;;;;;;;14.32;4.35;;;;;;;6.26;60.56;101598.91;4944734;28;118475;-70
2022/01/06 04:20:04;;;;;;;16.20;4.07;;;;;;;6.24;60.89;101608.59;4945691;28;123015;-70
2022/01/06 04:22:31;;;;;;;10.43;2.83;;;;;;;6.21;60.77;101603.38;4945999;28;124123;-70
2022/01/06 04:24:58;;;;;;;9.68;2.58;;;;;;;6.20;60.84;101601.66;4945484;28;119421;-71
2022/01/06 04:27:25;;;;;;;13.77;3.22;;;;;;;6.19;60.75;101611.28;4942388;28;118930;-71
2022/01/06 04:29:52;;;;;;;17.70;2.95;;;;;;;6.20;60.92;101617.44;4946188;28;124206;-70
2022/01/06 04:32:19;;;;;;;11.32;3.17;;;;;;;6.19;60.61;101610.41;4945276;28;124079;-71
2022/01/06 04:34:46;;;;;;;9.13;2.70;;;;;;;6.20;60.54;101622.69;4926079;28;118420;-70
2022/01/06 04:37:13;;;;;;;10.48;2.00;;;;;;;6.18;60.75;101624.47;4946982;28;118861;-70
2022/01/06 04:39:40;;;;;;;8.88;2.40;;;;;;;6.16;60.77;101631.47;4946384;28;124308;-71
2022/01/06 04:42:08;;;;;;;10.10;2.30;;;;;;;6.14;60.52;101633.28;4945029;28;123710;-70
2022/01/06 04:44:35;;;;;;;12.23;2.88;;;;;;;6.13;60.61;101636.81;4946765;28;119529;-70
2022/01/06 04:47:02;;;;;;;9.30;2.35;;;;;;;6.11;60.49;101628.06;4946150;28;118251;-70
2022/01/06 04:49:30;;;;;;;11.32;2.88;;;;;;;6.11;60.77;101633.34;4943368;28;123792;-71
2022/01/06 04:51:57;;;;;;;11.75;3.03;;;;;;;6.09;60.50;101629.84;4944591;28;124271;-70
2022/01/06 04:54:24;;;;;;;13.82;3.25;;;;;;;6.08;60.64;101636.00;4944109;28;118648;-70
2022/01/06 04:56:51;;;;;;;15.27;3.03;;;;;;;6.07;60.51;101636.91;4944866;28;119696;-71
2022/01/06 04:59:18;;;;;;;10.55;3.40;;;;;;;6.06;60.68;101645.66;4946979;28;124006;-70
2022/01/06 05:01:45;;;;;;;10.65;3.10;;;;;;;6.03;60.64;101646.59;4936696;28;122866;-70
2022/01/06 05:04:13;;;;;;;12.20;2.40;;;;;;;6.02;60.58;101650.09;4946295;28;119390;-71
2022/01/06 05:06:40;;;;;;;13.45;2.55;;;;;;;6.01;60.64;101645.75;4946580;28;119504;-70
2022/01/06 05:09:07;;;;;;;9.32;2.53;;;;;;;5.99;60.57;101645.75;4946330;28;124012;-71
2022/01/06 05:11:34;;;;;;;9.80;2.30;;;;;;;5.98;60.58;101651.88;4946510;28;123658;-70
2022/01/06 05:14:01;;;;;;;9.93;2.40;;;;;;;5.96;60.54;101651.03;4946014;28;120044;-71
2022/01/06 05:16:28;;;;;;;6.45;2.10;;;;;;;5.94;60.61;101658.06;4945120;28;118656;-70
2022/01/06 05:18:55;;;;;;;9.27;2.08;;;;;;;5.92;60.51;101665.09;4944196;28;123582;-70
2022/01/06 05:21:22;;;;;;;8.02;2.00;;;;;;;5.92;60.50;101667.72;4912982;28;123365;-70
2022/01/06 05:23:50;;;;;;;7.30;2.03;;;;;;;5.91;60.59;101663.34;4947335;28;120107;-70
2022/01/06 05:26:17;;;;;;;8.20;2.17;;;;;;;5.90;60.58;101677.38;4946144;28;118507;-70
2022/01/06 05:28:44;;;;;;;12.05;2.25;;;;;;;5.89;60.77;101669.50;4947319;28;123970;-69
2022/01/06 05:31:13;;;;;;;10.10;2.03;;;;;;;5.87;60.65;101677.41;4947037;28;123765;-70
2022/01/06 05:33:40;;;;;;;11.10;2.53;;;;;;;5.86;60.83;101675.69;4946493;28;119790;-70
2022/01/06 05:36:07;;;;;;;10.77;4.47;;;;;;;5.85;60.64;101679.19;4928787;28;118409;-69
2022/01/06 05:38:34;;;;;;;12.05;4.30;;;;;;;5.83;60.81;101686.22;4945908;28;124240;-70
2022/01/06 05:41:02;;;;;;;12.95;4.57;;;;;;;5.83;60.66;101686.22;4945529;28;123731;-70
2022/01/06 05:43:29;;;;;;;8.90;2.92;;;;;;;5.83;60.61;101691.50;4935293;28;119596;-70
2022/01/06 05:45:57;;;;;;;8.15;2.20;;;;;;;5.81;60.53;101688.88;4928720;28;120874;-70
2022/01/06 05:48:25;;;;;;;3.17;1.33;;;;;;;5.79;60.69;101681.91;4944369;28;125405;-70
2022/01/06 05:50:52;;;;;;;7.47;1.90;;;;;;;5.77;60.54;101686.31;4912448;28;122686;-70
2022/01/06 05:53:20;;;;;;;10.68;2.10;;;;;;;5.75;60.47;101688.09;4945695;28;119261;-70
2022/01/06 05:55:47;;;;;;;11.77;1.92;;;;;;;5.72;60.50;101688.97;4944497;28;118440;-70
2022/01/06 05:58:14;;;;;;;7.78;1.60;;;;;;;5.69;60.75;101685.50;4945801;28;124003;-70
2022/01/06 06:00:42;;;;;;;9.13;1.30;;;;;;;5.68;60.48;101694.28;4944567;28;123449;-70
2022/01/06 06:03:10;;;;;;;8.52;1.58;;;;;;;5.64;60.67;101694.31;4944576;28;119131;-70
2022/01/06 06:05:40;;;;;;;9.55;1.90;;;;;;;5.61;60.50;101702.25;4941792;28;118852;-70
2022/01/06 06:08:08;;;;;;;11.43;1.98;;;;;;;5.58;60.41;101710.16;4940920;28;125285;-71
2022/01/06 06:10:36;;;;;;;7.75;1.83;;;;;;;5.56;60.47;101709.31;4945433;28;123892;-70
2022/01/06 06:13:04;;;;;;;10.25;1.80;;;;;;;5.54;60.53;101721.59;4945452;28;120376;-70
2022/01/06 06:15:34;;;;;;;9.38;1.80;;;;;;;5.52;60.89;101712.84;4945072;28;118690;-70
2022/01/06 06:18:02;;;;;;;11.27;2.17;;;;;;;5.50;60.83;101719.88;4944808;28;123957;-70
2022/01/06 06:20:34;;;;;;;9.18;1.75;;;;;;;5.48;60.59;101726.88;4940851;28;123850;-70
2022/01/06 06:23:02;;;;;;;10.50;1.98;;;;;;;5.46;60.71;101729.56;4947744;28;121355;-71
2022/01/06 06:25:29;;;;;;;9.25;1.90;;;;;;;5.45;60.64;101726.94;4947820;28;117891;-70
2022/01/06 06:27:56;;;;;;;9.82;1.67;;;;;;;5.45;60.66;101732.19;4948557;28;123871;-70
2022/01/06 06:30:23;;;;;;;10.25;1.80;;;;;;;5.43;60.66;101736.59;4944458;28;124916;-70
2022/01/06 06:32:52;;;;;;;6.68;1.80;;;;;;;5.43;60.90;101739.22;4946005;28;120478;-70
2022/01/06 06:35:19;;;;;;;10.27;1.95;;;;;;;5.41;60.78;101741.00;4947924;28;120397;-70
2022/01/06 06:37:46;;;;;;;7.05;1.92;;;;;;;5.39;60.96;101751.50;4930461;28;123295;-70
2022/01/06 06:40:13;;;;;;;8.27;1.95;;;;;;;5.38;60.77;101755.00;4944170;28;124523;-70
2022/01/06 06:42:41;;;;;;;6.47;1.75;;;;;;;5.37;60.82;101760.25;4930757;28;118376;-70
2022/01/06 06:45:09;;;;;;;7.07;1.80;;;;;;;5.36;60.97;101769.03;4948705;28;119730;-71
2022/01/06 06:47:36;;;;;;;9.18;1.73;;;;;;;5.35;61.00;101756.78;4946807;28;123300;-70
2022/01/06 06:50:04;;;;;;;8.98;1.83;;;;;;;5.34;60.96;101760.31;4947552;28;123846;-71
2022/01/06 06:52:31;;;;;;;7.45;1.90;;;;;;;5.35;60.77;101767.28;4948484;28;119561;-71
2022/01/06 06:54:58;;;;;;;11.18;2.10;;;;;;;5.34;60.90;101770.81;4946626;28;119014;-71
2022/01/06 06:57:25;;;;;;;8.77;1.70;;;;;;;5.33;60.87;101769.06;4930536;28;123242;-71
2022/01/06 06:59:52;;;;;;;8.88;2.10;;;;;;;5.33;60.93;101774.31;4930153;28;122869;-71
2022/01/06 07:02:19;;;;;;;9.68;2.10;;;;;;;5.31;60.75;101770.81;4929750;28;118194;-71
2022/01/06 07:04:47;;;;;;;7.68;1.92;;;;;;;5.31;60.90;101776.09;4948283;28;118779;-71
2022/01/06 07:07:14;;;;;;;7.55;2.17;;;;;;;5.29;60.93;101775.22;4947999;28;123855;-71
2022/01/06 07:09:41;;;;;;;8.77;1.85;;;;;;;5.28;60.75;101779.63;4946508;28;123999;-71
2022/01/06 07:12:08;;;;;;;14.38;2.00;;;;;;;5.26;60.73;101778.75;4948407;28;120147;-70
2022/01/06 07:14:35;;;;;;;7.07;1.65;;;;;;;5.23;60.80;101787.50;4946853;28;119030;-71
2022/01/06 07:17:03;;;;;;;9.38;2.05;;;;;;;5.22;60.62;101787.56;4946974;28;123008;-71
2022/01/06 07:19:30;;;;;;;7.07;2.00;;;;;;;5.20;60.24;101792.81;4948078;28;123689;-71
2022/01/06 07:21:57;;;;;;;9.82;2.25;;;;;;;5.19;60.93;101793.69;4944922;28;120232;-71
2022/01/06 07:24:24;;;;;;;12.07;2.38;;;;;;;5.19;60.70;101791.06;4947834;28;120327;-71
2022/01/06 07:26:52;;;;;;;10.35;2.45;;;;;;;5.18;60.90;101797.19;4946799;28;123047;-70
2022/01/06 07:29:19;;;;;;;11.65;2.45;;;;;;;5.17;60.73;101803.31;4948287;28;122924;-71
2022/01/06 07:31:46;;;;;;;9.07;2.67;;;;;;;5.17;60.87;101816.44;4946451;28;119083;-71
2022/01/06 07:34:13;;;;;;;8.70;2.90;;;;;;;5.17;60.83;101816.44;4929050;28;118169;-71
2022/01/06 07:36:40;;;;;;;8.30;2.13;;;;;;;5.16;60.76;101819.97;4929095;28;122591;-71
2022/01/06 07:39:08;;;;;;;12.48;2.40;;;;;;;5.15;60.85;101818.22;4946732;28;124415;-71
2022/01/06 07:41:35;;;;;;;9.07;2.15;;;;;;;5.14;61.05;101824.38;4946479;28;119938;-69
2022/01/06 07:44:06;;;;;;;8.43;1.63;;;;;;;5.14;61.10;101832.25;4947875;28;120825;-69
2022/01/06 07:46:35;;;;;;;10.18;1.75;;;;;;;5.15;60.92;101827.88;4946672;28;124433;-69
2022/01/06 07:49:03;;;;;;;10.02;2.20;;;;;;;5.14;61.11;101832.25;4947174;28;123649;-69
2022/01/06 07:51:31;;;;;;;9.13;1.63;;;;;;;5.14;61.13;101832.25;4929789;28;118589;-68
2022/01/06 07:53:59;;;;;;;10.90;2.00;;;;;;;5.14;60.95;101832.25;4925752;28;119372;-68
2022/01/06 07:56:26;;;;;;;6.10;1.60;;;;;;;5.13;60.90;101827.88;4947483;28;124750;-69
2022/01/06 07:58:54;;;;;;;9.65;1.70;;;;;;;5.13;60.99;101835.75;4946415;28;123935;-70
2022/01/06 08:01:22;;;;;;;6.93;1.60;;;;;;;5.14;60.92;101834.88;4930150;28;118462;-69
2022/01/06 08:03:50;;;;;;;12.20;2.28;;;;;;;5.14;61.07;101837.50;4930058;28;118902;-69
2022/01/06 08:06:17;;;;;;;8.93;1.60;;;;;;;5.12;60.72;101828.72;4944879;28;124899;-69
2022/01/06 08:08:45;;;;;;;12.25;1.70;;;;;;;5.11;61.23;101837.50;4946434;28;122927;-70
2022/01/06 08:11:13;;;;;;;5.00;1.52;;;;;;;5.11;60.63;101837.50;4948099;28;121210;-71
2022/01/06 08:13:40;;;;;;;7.43;1.70;;;;;;;5.11;60.90;101837.50;4948155;28;120778;-71
2022/01/06 08:16:08;;;;;;;7.80;1.67;;;;;;;5.12;60.88;101839.25;4952367;28;123702;-70
2022/01/06 08:18:35;;;;;;;4.60;1.33;;;;;;;5.12;61.18;101838.38;4955301;28;123396;-71
2022/01/06 08:21:03;;;;;;;7.22;1.73;;;;;;;5.11;61.06;101834.88;4932227;28;117775;-71
2022/01/06 08:23:30;;;;;;;10.93;1.80;;;;;;;5.13;61.04;101834.88;4948170;28;118800;-71
2022/01/06 08:25:57;;;;;;;9.60;2.10;;;;;;;5.13;61.21;101841.00;4948051;28;124023;-71
2022/01/06 08:28:24;;;;;;;10.65;2.17;;;;;;;5.13;61.57;101834.88;4948408;28;124476;-70
2022/01/06 08:30:52;;;;;;;8.45;1.75;;;;;;;5.13;61.11;101841.00;4946316;28;120088;-72
2022/01/06 08:33:19;;;;;;;13.82;2.25;;;;;;;5.14;60.99;101842.75;4946690;28;119002;-70
2022/01/06 08:35:47;;;;;;;9.40;2.15;;;;;;;5.16;61.17;101845.34;4949818;28;124713;-72
2022/01/06 08:38:15;;;;;;;11.65;2.13;;;;;;;5.17;61.16;101847.09;4947223;28;123940;-71
2022/01/06 08:40:42;;;;;;;10.18;3.13;;;;;;;5.19;61.27;101851.44;4946079;28;120011;-71
2022/01/06 08:43:09;;;;;;;10.43;2.60;;;;;;;5.21;61.28;101854.94;4911760;28;118358;-71
2022/01/06 08:45:37;;;;;;;9.02;2.25;;;;;;;5.24;61.41;101849.69;4929043;28;123412;-71
2022/01/06 08:48:04;;;;;;;8.43;2.20;;;;;;;5.25;61.52;101848.81;4946567;28;124969;-71
2022/01/06 08:50:32;;;;;;;13.38;2.53;;;;;;;5.29;61.49;101856.66;4946466;28;119356;-71
2022/01/06 08:52:59;;;;;;;7.75;2.20;;;;;;;5.31;61.47;101854.88;4947717;28;118865;-71
2022/01/06 08:55:27;;;;;;;8.05;2.03;;;;;;;5.33;61.34;101853.09;4947286;28;123881;-71
2022/01/06 08:57:54;;;;;;;8.55;2.40;;;;;;;5.34;61.26;101855.72;4947315;28;123802;-71
2022/01/06 09:00:22;;;;;;;7.80;2.10;;;;;;;5.38;61.29;101861.84;4945393;28;119518;-71
2022/01/06 09:02:49;;;;;;;6.97;2.22;;;;;;;5.39;61.33;101868.84;4947860;28;120154;-71
2022/01/06 09:05:16;;;;;;;13.13;2.53;;;;;;;5.41;61.45;101867.94;4930498;28;122838;-71
2022/01/06 09:07:43;;;;;;;10.15;2.30;;;;;;;5.44;61.46;101867.03;4931929;28;123484;-71
2022/01/06 09:10:11;;;;;;;6.85;2.55;;;;;;;5.46;61.44;101881.03;4949926;28;119867;-71
2022/01/06 09:12:39;;;;;;;9.43;2.42;;;;;;;5.49;61.44;101873.16;4953972;28;118644;-71
2022/01/06 09:15:08;;;;;;;7.50;2.60;;;;;;;5.51;61.64;101876.63;4950900;28;124306;-72
2022/01/06 09:17:36;;;;;;;8.35;2.58;;;;;;;5.54;61.47;101883.59;4947363;28;123029;-71
2022/01/06 09:20:06;;;;;;;9.00;3.40;;;;;;;5.55;61.63;101886.22;4948013;28;120079;-71
2022/01/06 09:22:40;;;;;;;8.90;2.75;;;;;;;5.57;61.46;101879.19;4946936;28;118769;-71
2022/01/06 09:25:09;;;;;;;9.98;2.95;;;;;;;5.59;61.54;101882.69;4944885;28;124147;-71
2022/01/06 09:27:36;;;;;;;10.43;3.13;;;;;;;5.60;61.65;101884.44;4946203;28;124132;-72
2022/01/06 09:30:06;;;;;;;9.40;3.13;;;;;;;5.63;61.43;101896.69;4947195;28;119922;-72
2022/01/06 09:32:33;;;;;;;9.57;3.25;;;;;;;5.65;61.65;101898.44;4946247;28;119079;-72
2022/01/06 09:35:00;;;;;;;14.13;3.33;;;;;;;5.69;61.67;101901.91;4945989;28;123807;-72
2022/01/06 09:37:27;;;;;;;13.27;3.15;;;;;;;5.73;61.66;101900.13;4945703;28;123839;-72
2022/01/06 09:39:54;;;;;;;10.13;3.67;;;;;;;5.76;61.48;101900.09;4944718;28;119126;-72
2022/01/06 09:42:22;;;;;;;11.70;3.72;;;;;;;5.80;61.47;101896.53;4929867;28;117953;-72
2022/01/06 09:44:51;;;;;;;12.70;4.00;;;;;;;5.84;61.81;101900.91;4946537;28;124069;-72
2022/01/06 09:47:19;;;;;;;8.00;3.20;;;;;;;5.88;61.70;101910.53;4945961;28;123407;-72
2022/01/06 09:50:08;;;;;;;12.63;3.85;;;;;;;5.92;61.47;101912.22;4946794;28;120307;-72
2022/01/06 09:52:36;;;;;;;15.00;3.35;;;;;;;5.96;61.68;101911.34;4949260;28;119853;-72
2022/01/06 09:55:05;;;;;;;8.80;3.22;;;;;;;5.99;61.63;101913.97;4937641;28;124483;-72
2022/01/06 09:57:32;;;;;;;6.88;2.72;;;;;;;6.03;61.63;101920.94;4970525;28;123580;-73
2022/01/06 10:00:00;;;;;;;8.55;2.83;;;;;;;6.07;61.56;101913.03;4962432;28;119911;-69
2022/01/06 10:02:39;;;;;;;12.30;2.90;;;;;;;6.12;61.49;101919.09;4962912;28;119719;-71
2022/01/06 10:05:07;;;;;;;9.73;2.97;;;;;;;6.15;62.06;101919.94;4942161;28;123125;-72
2022/01/06 10:07:39;;;;;;;7.93;2.72;;;;;;;6.19;61.57;101919.03;4951998;28;122902;-72
2022/01/06 10:10:12;;;;;;;9.90;2.60;;;;;;;6.24;61.86;101924.25;4933575;28;118457;-70
2022/01/06 10:12:40;;;;;;;14.18;2.65;;;;;;;6.29;61.74;101911.94;4950896;28;118819;-71
2022/01/06 10:15:17;;;;;;;9.85;2.95;;;;;;;6.34;61.64;101910.09;4949608;28;124159;-71
2022/01/06 10:17:45;;;;;;;8.18;2.83;;;;;;;6.40;61.72;101910.06;4950285;28;122992;-71
2022/01/06 10:20:17;;;;;;;10.10;2.67;;;;;;;6.48;61.96;101911.72;4948196;28;118397;-71
2022/01/06 10:22:49;;;;;;;11.52;2.90;;;;;;;6.53;61.74;101910.78;4948827;28;118588;-71
2022/01/06 10:25:19;;;;;;;10.88;2.60;;;;;;;6.59;61.76;101909.84;4947503;28;123956;-71
2022/01/06 10:27:46;;;;;;;10.75;2.45;;;;;;;6.65;62.05;101899.25;4947632;28;122735;-71
2022/01/06 10:30:14;;;;;;;8.23;2.75;;;;;;;6.72;62.04;101900.91;4947932;28;119647;-71
2022/01/06 10:32:42;;;;;;;7.63;3.00;;;;;;;6.81;62.06;101905.19;4948191;28;118735;-71
2022/01/06 10:35:11;;;;;;;8.20;2.42;;;;;;;6.90;62.10;101898.97;4948583;28;123850;-71
2022/01/06 10:37:41;;;;;;;10.02;2.67;;;;;;;6.98;61.70;101897.09;4946393;28;124888;-70
2022/01/06 10:40:12;;;;;;;6.93;2.50;;;;;;;7.05;62.10;101898.75;4930577;28;120221;-71
2022/01/06 10:42:41;;;;;;;8.55;2.78;;;;;;;7.13;61.92;101896.88;4948343;28;119946;-71
2022/01/06 10:45:15;;;;;;;6.93;2.45;;;;;;;7.19;61.80;101896.78;4948703;28;123791;-71
2022/01/06 10:47:47;;;;;;;7.85;2.40;;;;;;;7.28;62.05;101894.94;4947870;28;124760;-70
2022/01/06 10:50:29;;;;;;;10.75;2.70;;;;;;;7.37;61.79;101890.41;4947738;28;118886;-71
2022/01/06 10:53:00;;;;;;;11.63;2.58;;;;;;;7.45;61.90;101892.91;4946420;28;119395;-70
2022/01/06 10:55:30;;;;;;;8.25;2.50;;;;;;;7.53;61.81;101891.03;4949655;28;123472;-71
2022/01/06 10:58:00;;;;;;;13.13;3.00;;;;;;;7.60;61.94;101890.03;4948783;28;125065;-71
2022/01/06 11:00:39;;;;;;;14.35;3.55;;;;;;;7.69;61.78;101888.16;4951689;28;119319;-71
2022/01/06 11:03:16;;;;;;;11.63;3.42;;;;;;;7.78;61.85;101885.38;4950179;28;118499;-71
2022/01/06 11:05:48;;;;;;;8.55;3.05;;;;;;;7.87;61.70;101885.19;4932436;28;123258;-72
2022/01/06 11:08:19;;;;;;;11.32;3.72;;;;;;;7.95;62.07;101885.97;4933196;28;124431;-72
2022/01/06 11:13:39;;;;;;;11.43;3.55;;;;;;;8.09;61.55;101880.44;4918981;28;118889;-72
2022/01/06 11:16:08;;;;;;;14.48;4.00;;;;;;;8.17;61.58;101877.66;4931278;28;123572;-72
2022/01/06 11:18:40;;;;;;;10.15;3.40;;;;;;;8.25;61.92;101891.59;4948221;28;124223;-72
2022/01/06 11:21:10;;;;;;;7.72;3.38;;;;;;;8.31;61.60;101886.19;4948057;28;119749;-72
2022/01/06 11:23:37;;;;;;;10.27;3.65;;;;;;;8.41;61.62;101886.03;4932696;28;118213;-72
2022/01/06 11:26:21;;;;;;;10.57;3.42;;;;;;;8.49;61.49;101884.97;4949804;28;124792;-71
2022/01/06 11:29:00;;;;;;;8.95;3.13;;;;;;;8.56;61.42;101876.03;4946471;28;123910;-71
2022/01/06 11:31:34;;;;;;;7.88;3.08;;;;;;;8.66;61.41;101882.00;4943685;28;120722;-72
2022/01/06 11:34:11;;;;;;;10.90;3.60;;;;;;;8.75;61.24;101878.31;4948450;28;119592;-72
2022/01/06 11:36:39;;;;;;;12.80;4.05;;;;;;;8.83;61.31;101872.88;4932600;28;123345;-71
2022/01/06 11:39:08;;;;;;;11.32;3.50;;;;;;;8.90;61.08;101874.47;4948251;28;124496;-72
2022/01/06 11:41:40;;;;;;;12.73;3.60;;;;;;;8.98;61.02;101876.97;4930759;28;119276;-71